createdAt,value
2022-10-01T00:01:04.841Z,67.74
2022-10-01T00:03:39.895Z,67.80
2022-10-01T00:06:16.765Z,68.00
2022-10-01T00:08:51.732Z,68.05
2022-10-01T00:11:27.259Z,68.11
2022-10-01T00:14:01.981Z,68.16
2022-10-01T00:16:36.408Z,68.15
2022-10-01T00:19:15.155Z,68.38
2022-10-01T00:21:48.729Z,68.35
2022-10-01T00:24:22.272Z,68.29
2022-10-01T00:26:55.829Z,68.32
2022-10-01T00:29:29.328Z,68.31
2022-10-01T00:32:03.230Z,68.36
2022-10-01T00:34:38.148Z,68.37
2022-10-01T00:37:11.631Z,68.54
2022-10-01T00:39:45.624Z,68.36
2022-10-01T00:42:22.328Z,68.37
2022-10-01T00:44:56.650Z,68.19
2022-10-01T00:47:34.800Z,68.46
2022-10-01T00:50:17.470Z,68.36
2022-10-01T00:52:55.075Z,68.47
2022-10-01T00:55:34.138Z,68.37
2022-10-01T00:58:10.034Z,68.31
2022-10-01T01:00:44.635Z,68.40
2022-10-01T01:03:18.523Z,68.38
2022-10-01T01:05:53.509Z,68.44
2022-10-01T01:08:27.157Z,68.26
2022-10-01T01:11:09.345Z,68.28
2022-10-01T01:13:54.390Z,68.41
2022-10-01T01:16:34.077Z,68.35
2022-10-01T01:19:22.673Z,68.41
2022-10-01T01:22:02.210Z,68.41
2022-10-01T01:24:50.393Z,68.44
2022-10-01T01:27:36.327Z,68.51
2022-10-01T01:30:13.713Z,68.31
2022-10-01T01:32:54.269Z,68.40
2022-10-01T01:35:32.439Z,68.41
2022-10-01T01:38:10.596Z,68.59
2022-10-01T01:40:51.621Z,68.61
2022-10-01T01:43:29.557Z,68.61
2022-10-01T01:46:07.469Z,68.86
2022-10-01T01:48:44.507Z,68.78
2022-10-01T01:51:26.358Z,68.72
2022-10-01T01:54:00.686Z,68.80
2022-10-01T01:56:35.969Z,68.83
2022-10-01T01:59:09.929Z,68.97
2022-10-01T02:01:46.004Z,69.03
2022-10-01T02:04:25.493Z,68.98
2022-10-01T02:07:15.388Z,69.10
2022-10-01T02:09:54.423Z,69.19
2022-10-01T02:12:39.203Z,69.24
2022-10-01T02:15:25.946Z,69.36
2022-10-01T02:18:07.767Z,69.27
2022-10-01T02:20:47.343Z,69.53
2022-10-01T02:23:26.793Z,69.59
2022-10-01T02:26:08.119Z,69.72
2022-10-01T02:28:44.002Z,69.83
2022-10-01T02:31:20.060Z,69.83
2022-10-01T02:33:57.845Z,69.84
2022-10-01T02:36:35.276Z,70.04
2022-10-01T02:39:10.463Z,69.94
2022-10-01T02:41:48.129Z,69.86
2022-10-01T02:44:27.074Z,69.88
2022-10-01T02:47:07.927Z,69.94
2022-10-01T02:49:43.078Z,69.87
2022-10-01T02:52:25.918Z,69.85
2022-10-01T02:55:05.284Z,69.84
2022-10-01T02:57:39.336Z,69.82
2022-10-01T03:00:16.074Z,70.03
2022-10-01T03:02:50.328Z,69.95
2022-10-01T03:05:25.587Z,70.15
2022-10-01T03:07:59.200Z,70.22
2022-10-01T03:10:32.752Z,70.21
2022-10-01T03:13:07.528Z,70.15
2022-10-01T03:15:41.141Z,70.21
2022-10-01T03:18:14.680Z,70.45
2022-10-01T03:20:50.898Z,70.45
2022-10-01T03:23:24.389Z,70.52
2022-10-01T03:25:57.944Z,70.49
2022-10-01T03:28:31.553Z,70.49
2022-10-01T03:31:09.371Z,70.68
2022-10-01T03:33:42.917Z,70.78
2022-10-01T03:36:18.085Z,70.73
2022-10-01T03:38:51.607Z,70.76
2022-10-01T03:41:25.171Z,70.77
2022-10-01T03:44:00.608Z,70.80
2022-10-01T03:46:34.383Z,70.99
2022-10-01T03:49:07.983Z,70.92
2022-10-01T03:51:43.058Z,71.09
2022-10-01T03:54:16.665Z,70.92
2022-10-01T03:56:50.279Z,71.13
2022-10-01T03:59:23.835Z,71.16
2022-10-01T04:01:57.476Z,71.19
2022-10-01T04:04:30.788Z,70.84
2022-10-01T04:07:05.775Z,71.25
2022-10-01T04:09:39.300Z,71.47
2022-10-01T04:12:12.808Z,71.71
2022-10-01T04:14:46.330Z,71.63
2022-10-01T04:17:20.629Z,71.91
2022-10-01T04:19:54.455Z,71.94
2022-10-01T04:22:29.078Z,71.40
2022-10-01T04:25:02.902Z,71.74
2022-10-01T04:27:36.498Z,71.31
2022-10-01T04:30:11.455Z,71.30
2022-10-01T04:32:45.226Z,71.63
2022-10-01T04:35:18.989Z,71.88
2022-10-01T04:37:58.609Z,71.33
2022-10-01T04:40:32.847Z,71.72
2022-10-01T04:43:08.550Z,71.87
2022-10-01T04:45:42.281Z,71.93
2022-10-01T04:48:15.833Z,72.02
2022-10-01T04:50:49.404Z,72.18
2022-10-01T04:53:24.379Z,72.14
2022-10-01T04:55:57.981Z,72.16
2022-10-01T04:58:31.902Z,71.74
2022-10-01T05:01:05.544Z,71.84
2022-10-01T05:03:39.197Z,71.99
2022-10-01T05:06:12.813Z,72.11
2022-10-01T05:08:49.008Z,72.31
2022-10-01T05:11:22.543Z,72.26
2022-10-01T05:13:56.260Z,72.36
2022-10-01T05:16:29.937Z,72.39
2022-10-01T05:19:03.590Z,72.54
2022-10-01T05:21:38.561Z,72.71
2022-10-01T05:24:13.532Z,72.71
2022-10-01T05:26:47.117Z,72.63
2022-10-01T05:29:20.672Z,72.72
2022-10-01T05:31:54.409Z,72.69
2022-10-01T05:34:27.993Z,72.88
2022-10-01T05:37:02.956Z,72.81
2022-10-01T05:39:37.998Z,73.18
2022-10-01T05:42:11.544Z,73.09
2022-10-01T05:44:50.149Z,73.28
2022-10-01T05:47:23.702Z,73.23
2022-10-01T05:49:57.186Z,73.28
2022-10-01T05:52:30.673Z,73.22
2022-10-01T05:55:06.464Z,73.13
2022-10-01T05:57:40.141Z,73.33
2022-10-01T06:00:14.971Z,73.19
2022-10-01T06:02:52.253Z,73.19
2022-10-01T06:05:26.896Z,73.00
2022-10-01T06:08:00.951Z,72.85
2022-10-01T06:10:37.035Z,72.67
2022-10-01T06:13:10.719Z,72.47
2022-10-01T06:15:44.806Z,72.10
2022-10-01T06:18:18.374Z,71.83
2022-10-01T06:20:51.925Z,71.54
2022-10-01T06:23:25.376Z,71.10
2022-10-01T06:26:01.648Z,70.96
2022-10-01T06:28:37.946Z,70.69
2022-10-01T06:31:14.361Z,70.41
2022-10-01T06:33:47.953Z,70.10
2022-10-01T06:36:21.511Z,69.84
2022-10-01T06:38:55.026Z,69.70
2022-10-01T06:41:30.029Z,69.46
2022-10-01T06:44:03.570Z,69.06
2022-10-01T06:46:37.519Z,68.88
2022-10-01T06:49:11.157Z,68.56
2022-10-01T06:52:01.741Z,68.15
2022-10-01T06:54:35.548Z,68.23
2022-10-01T06:57:10.800Z,68.08
2022-10-01T06:59:44.312Z,67.86
2022-10-01T07:02:29.032Z,67.90
2022-10-01T07:05:02.683Z,67.86
2022-10-01T07:07:39.366Z,67.80
2022-10-01T07:10:13.830Z,67.34
2022-10-01T07:12:50.330Z,67.24
2022-10-01T07:15:24.174Z,67.44
2022-10-01T07:17:57.656Z,67.27
2022-10-01T07:20:35.594Z,67.34
2022-10-01T07:23:12.089Z,67.14
2022-10-01T07:25:45.992Z,66.95
2022-10-01T07:28:24.181Z,66.80
2022-10-01T07:31:02.845Z,66.71
2022-10-01T07:33:36.446Z,66.56
2022-10-01T07:36:12.556Z,66.51
2022-10-01T07:38:51.061Z,66.37
2022-10-01T07:41:26.485Z,66.55
2022-10-01T07:44:03.610Z,66.69
2022-10-01T07:46:37.131Z,66.68
2022-10-01T07:49:11.329Z,67.08
2022-10-01T07:51:44.820Z,66.99
2022-10-01T07:54:19.191Z,66.82
2022-10-01T07:56:56.004Z,66.67
2022-10-01T07:59:31.516Z,66.87
2022-10-01T08:02:05.051Z,66.94
2022-10-01T08:04:55.942Z,66.86
2022-10-01T08:07:29.610Z,66.60
2022-10-01T08:10:04.531Z,66.46
2022-10-01T08:12:38.285Z,65.90
2022-10-01T08:15:13.674Z,65.89
2022-10-01T08:17:47.272Z,65.06
2022-10-01T08:20:21.660Z,63.95
2022-10-01T08:22:55.195Z,63.66
2022-10-01T08:25:28.618Z,62.31
2022-10-01T08:28:02.647Z,60.95
2022-10-01T08:30:38.679Z,59.82
2022-10-01T08:33:14.463Z,57.57
2022-10-01T08:35:48.221Z,56.98
2022-10-01T08:38:21.804Z,56.80
2022-10-01T08:40:58.783Z,56.89
2022-10-01T08:43:36.568Z,55.80
2022-10-01T08:46:18.278Z,56.08
2022-10-01T08:49:02.899Z,55.65
2022-10-01T08:51:41.140Z,53.87
2022-10-01T08:54:24.988Z,53.45
2022-10-01T08:57:01.890Z,52.67
2022-10-01T08:59:42.150Z,52.97
2022-10-01T09:02:26.149Z,53.07
2022-10-01T09:05:02.976Z,53.35
2022-10-01T09:07:51.194Z,53.54
2022-10-01T09:10:37.061Z,53.68
2022-10-01T09:13:50.079Z,52.69
2022-10-01T09:16:31.796Z,52.14
2022-10-01T09:19:19.833Z,47.63
2022-10-01T09:21:59.666Z,44.54
2022-10-01T09:24:44.573Z,41.92
2022-10-01T09:27:20.086Z,38.52
2022-10-01T09:29:57.721Z,35.45
2022-10-01T09:32:38.216Z,32.95
2022-10-01T09:35:25.134Z,30.62
2022-10-01T09:38:04.615Z,29.23
2022-10-01T09:40:47.773Z,27.93
2022-10-01T09:43:22.121Z,29.78
2022-10-01T09:45:58.802Z,25.99
2022-10-01T09:48:45.766Z,24.69
2022-10-01T09:51:27.934Z,23.04
2022-10-01T09:54:07.758Z,23.12
2022-10-01T09:56:49.099Z,23.54
2022-10-01T09:59:28.435Z,23.76
2022-10-01T10:02:06.284Z,22.47
2022-10-01T10:04:39.929Z,21.92
2022-10-01T10:07:20.511Z,21.53
2022-10-01T10:09:54.624Z,21.91
2022-10-01T10:12:31.102Z,22.01
2022-10-01T10:15:09.962Z,21.77
2022-10-01T10:17:46.419Z,20.39
2022-10-01T10:20:26.836Z,19.94
2022-10-01T10:23:17.349Z,20.01
2022-10-01T10:25:57.005Z,19.36
2022-10-01T10:28:43.618Z,18.71
2022-10-01T10:31:20.665Z,19.04
2022-10-01T10:33:58.035Z,18.24
2022-10-01T10:36:34.276Z,17.66
2022-10-01T10:39:21.652Z,17.47
2022-10-01T10:41:56.842Z,16.96
2022-10-01T10:44:36.375Z,16.59
2022-10-01T10:47:15.027Z,16.47
2022-10-01T10:49:52.596Z,16.45
2022-10-01T10:52:30.471Z,15.73
2022-10-01T10:55:24.161Z,15.78
2022-10-01T10:58:08.938Z,15.55
2022-10-01T11:00:48.543Z,15.46
2022-10-01T11:03:25.225Z,15.33
2022-10-01T11:06:04.794Z,14.91
2022-10-01T11:08:39.552Z,15.00
2022-10-01T11:11:32.495Z,15.21
2022-10-01T11:14:23.659Z,15.10
2022-10-01T11:17:27.793Z,15.45
2022-10-01T11:20:20.830Z,15.70
2022-10-01T11:23:04.510Z,15.95
2022-10-01T11:25:46.726Z,16.25
2022-10-01T11:28:38.658Z,16.55
2022-10-01T11:31:25.050Z,16.29
2022-10-01T11:34:13.944Z,15.59
2022-10-01T11:36:59.522Z,15.61
2022-10-01T11:39:36.437Z,16.20
2022-10-01T11:42:14.706Z,15.65
2022-10-01T11:45:00.647Z,15.23
2022-10-01T11:47:39.412Z,15.39
2022-10-01T11:50:18.745Z,15.59
2022-10-01T11:52:58.577Z,15.89
2022-10-01T11:55:55.062Z,16.27
2022-10-01T11:58:50.527Z,15.61
2022-10-01T12:01:34.149Z,16.50
2022-10-01T12:04:19.706Z,16.33
2022-10-01T12:06:59.461Z,16.07
2022-10-01T12:09:40.707Z,16.45
2022-10-01T12:12:19.471Z,16.32
2022-10-01T12:15:06.496Z,16.46
2022-10-01T12:17:46.630Z,16.64
2022-10-01T12:20:26.669Z,17.78
2022-10-01T12:23:02.252Z,19.55
2022-10-01T12:25:44.675Z,20.97
2022-10-01T12:28:26.065Z,22.97
2022-10-01T12:31:05.863Z,24.69
2022-10-01T12:34:04.730Z,26.69
2022-10-01T12:36:49.288Z,28.77
2022-10-01T12:39:40.561Z,30.82
2022-10-01T12:42:43.920Z,32.56
2022-10-01T12:45:29.397Z,33.11
2022-10-01T12:48:16.900Z,34.63
2022-10-01T12:51:00.592Z,35.85
2022-10-01T12:53:40.477Z,37.16
2022-10-01T12:56:23.179Z,38.07
2022-10-01T12:59:17.201Z,38.57
2022-10-01T13:02:02.960Z,39.95
2022-10-01T13:04:56.865Z,40.54
2022-10-01T13:07:51.271Z,41.13
2022-10-01T13:10:50.090Z,42.35
2022-10-01T13:13:37.559Z,43.44
2022-10-01T13:16:22.389Z,43.83
2022-10-01T13:19:04.931Z,44.34
2022-10-01T13:22:02.245Z,44.42
2022-10-01T13:24:45.002Z,45.21
2022-10-01T13:27:28.738Z,45.99
2022-10-01T13:30:04.615Z,43.92
2022-10-01T13:32:53.796Z,45.60
2022-10-01T13:35:35.173Z,46.71
2022-10-01T13:38:17.279Z,47.11
2022-10-01T13:41:01.493Z,47.63
2022-10-01T13:43:36.803Z,48.15
2022-10-01T13:46:12.329Z,48.54
2022-10-01T13:48:49.920Z,49.20
2022-10-01T13:51:23.495Z,49.14
2022-10-01T13:54:00.707Z,47.78
2022-10-01T13:56:38.230Z,49.22
2022-10-01T13:59:30.644Z,49.87
2022-10-01T14:02:24.190Z,50.31
2022-10-01T14:05:04.967Z,50.50
2022-10-01T14:07:41.134Z,51.18
2022-10-01T14:10:16.957Z,51.27
2022-10-01T14:13:10.605Z,51.57
2022-10-01T14:16:00.524Z,51.80
2022-10-01T14:18:40.804Z,51.94
2022-10-01T14:21:35.609Z,51.94
2022-10-01T14:24:26.079Z,52.29
2022-10-01T14:27:05.355Z,52.67
2022-10-01T14:29:53.157Z,52.99
2022-10-01T14:32:40.067Z,53.04
2022-10-01T14:35:29.613Z,53.56
2022-10-01T14:38:08.912Z,53.51
2022-10-01T14:40:45.356Z,53.64
2022-10-01T14:43:21.502Z,53.55
2022-10-01T14:46:01.012Z,53.83
2022-10-01T14:48:37.988Z,54.10
2022-10-01T14:51:24.989Z,54.15
2022-10-01T14:54:01.467Z,54.52
2022-10-01T14:56:36.289Z,54.88
2022-10-01T14:59:32.462Z,55.17
2022-10-01T15:02:21.814Z,55.27
2022-10-01T15:05:10.107Z,55.56
2022-10-01T15:07:50.717Z,55.93
2022-10-01T15:10:43.348Z,56.31
2022-10-01T15:13:29.500Z,56.29
2022-10-01T15:16:04.347Z,56.72
2022-10-01T15:18:43.093Z,56.98
2022-10-01T15:21:21.387Z,57.17
2022-10-01T15:23:58.705Z,57.19
2022-10-01T15:26:33.788Z,57.44
2022-10-01T15:29:13.448Z,57.46
2022-10-01T15:31:49.102Z,57.73
2022-10-01T15:34:26.693Z,57.74
2022-10-01T15:37:01.740Z,57.92
2022-10-01T15:39:39.215Z,57.87
2022-10-01T15:42:25.910Z,57.88
2022-10-01T15:45:26.048Z,57.77
2022-10-01T15:47:59.499Z,58.25
2022-10-01T15:50:36.843Z,58.22
2022-10-01T15:53:19.737Z,58.40
2022-10-01T15:55:57.228Z,58.76
2022-10-01T15:58:35.211Z,58.47
2022-10-01T16:01:10.935Z,58.71
2022-10-01T16:03:52.601Z,58.62
2022-10-01T16:06:30.316Z,58.99
2022-10-01T16:09:08.613Z,59.12
2022-10-01T16:12:00.737Z,59.09
2022-10-01T16:14:39.478Z,59.39
2022-10-01T16:17:35.845Z,59.30
2022-10-01T16:20:35.707Z,59.66
2022-10-01T16:23:39.637Z,59.57
2022-10-01T16:26:49.558Z,59.60
2022-10-01T16:29:29.970Z,59.90
2022-10-01T16:32:03.958Z,60.12
2022-10-01T16:34:37.557Z,60.52
2022-10-01T16:37:11.139Z,60.46
2022-10-01T16:39:46.182Z,60.85
2022-10-01T16:42:24.726Z,61.07
2022-10-01T16:44:58.325Z,60.85
2022-10-01T16:47:31.898Z,61.08
2022-10-01T16:50:17.541Z,61.08
2022-10-01T16:52:54.402Z,61.26
2022-10-01T16:55:36.006Z,61.56
2022-10-01T16:58:09.656Z,61.73
2022-10-01T17:00:42.944Z,60.56
2022-10-01T17:03:18.565Z,61.61
2022-10-01T17:05:52.075Z,61.90
2022-10-01T17:08:25.529Z,62.17
2022-10-01T17:11:03.355Z,62.32
2022-10-01T17:13:36.835Z,62.47
2022-10-01T17:16:15.196Z,62.55
2022-10-01T17:18:48.761Z,62.76
2022-10-01T17:21:22.328Z,62.77
2022-10-01T17:23:56.033Z,62.78
2022-10-01T17:26:30.698Z,61.71
2022-10-01T17:29:04.197Z,62.37
2022-10-01T17:31:40.878Z,62.91
2022-10-01T17:34:14.415Z,62.95
2022-10-01T17:36:47.829Z,63.03
2022-10-01T17:39:21.262Z,63.26
2022-10-01T17:41:56.136Z,63.55
2022-10-01T17:44:29.590Z,63.48
2022-10-01T17:47:03.142Z,63.74
2022-10-01T17:49:36.648Z,63.86
2022-10-01T17:52:10.557Z,63.89
2022-10-01T17:54:44.184Z,64.11
2022-10-01T17:57:19.388Z,64.31
2022-10-01T17:59:53.147Z,64.45
2022-10-01T18:02:43.163Z,64.65
2022-10-01T18:05:17.450Z,64.67
2022-10-01T18:07:51.077Z,64.78
2022-10-01T18:10:24.658Z,64.93
2022-10-01T18:13:00.151Z,65.07
2022-10-01T18:15:33.864Z,65.27
2022-10-01T18:19:24.323Z,65.31
2022-10-01T18:21:07.151Z,65.46
2022-10-01T18:23:41.015Z,65.53
2022-10-01T18:26:15.671Z,65.75
2022-10-01T18:28:51.686Z,65.73
2022-10-01T18:31:27.540Z,65.94
2022-10-01T18:34:02.775Z,66.05
2022-10-01T18:36:43.649Z,66.03
2022-10-01T18:39:22.362Z,66.26
2022-10-01T18:41:55.990Z,66.23
2022-10-01T18:44:30.896Z,66.18
2022-10-01T18:47:19.413Z,66.34
2022-10-01T18:50:08.396Z,66.44
2022-10-01T18:52:56.210Z,66.47
2022-10-01T18:56:04.113Z,66.61
2022-10-01T18:58:53.953Z,66.65
2022-10-01T19:01:39.995Z,66.62
2022-10-01T19:04:29.027Z,66.72
2022-10-01T19:07:16.891Z,66.97
2022-10-01T19:10:00.560Z,67.18
2022-10-01T19:12:48.012Z,67.14
2022-10-01T19:15:35.086Z,67.41
2022-10-01T19:18:29.774Z,67.16
2022-10-01T19:21:16.137Z,67.37
2022-10-01T19:24:30.151Z,67.56
2022-10-01T19:27:13.739Z,67.60
2022-10-01T19:30:02.481Z,67.63
2022-10-01T19:32:43.515Z,67.70
2022-10-01T19:35:23.116Z,67.89
2022-10-01T19:38:02.626Z,67.93
2022-10-01T19:40:40.770Z,68.29
2022-10-01T19:43:22.911Z,68.12
2022-10-01T19:46:00.841Z,68.10
2022-10-01T19:48:45.492Z,68.08
2022-10-01T19:51:24.698Z,68.20
2022-10-01T19:54:01.323Z,68.22
2022-10-01T19:56:38.493Z,68.21
2022-10-01T19:59:14.611Z,68.34
2022-10-01T20:01:53.470Z,68.41
2022-10-01T20:04:34.452Z,68.32
2022-10-01T20:07:13.461Z,68.15
2022-10-01T20:09:51.944Z,67.69
2022-10-01T20:12:32.531Z,68.08
2022-10-01T20:15:21.908Z,68.40
2022-10-01T20:18:03.980Z,68.58
2022-10-01T20:20:43.704Z,68.69
2022-10-01T20:23:35.573Z,68.86
2022-10-01T20:26:17.052Z,68.94
2022-10-01T20:29:16.000Z,68.94
2022-10-01T20:31:59.047Z,69.29
2022-10-01T20:34:41.139Z,69.25
2022-10-01T20:37:35.170Z,69.27
2022-10-01T20:40:26.174Z,69.20
2022-10-01T20:43:07.330Z,69.23
2022-10-01T20:45:42.155Z,69.26
2022-10-01T20:48:20.609Z,69.41
2022-10-01T20:50:55.765Z,69.56
2022-10-01T20:53:38.980Z,69.74
2022-10-01T20:56:17.467Z,69.72
2022-10-01T20:58:57.555Z,69.66
2022-10-01T21:01:37.412Z,70.05
2022-10-01T21:04:19.649Z,69.92
2022-10-01T21:06:57.500Z,70.00
2022-10-01T21:09:42.744Z,69.92
2022-10-01T21:12:23.605Z,70.01
2022-10-01T21:14:58.129Z,70.07
2022-10-01T21:17:41.315Z,70.08
2022-10-01T21:20:50.102Z,69.98
2022-10-01T21:23:40.954Z,69.78
2022-10-01T21:26:25.586Z,69.95
2022-10-01T21:29:19.452Z,69.95
2022-10-01T21:32:05.038Z,70.09
2022-10-01T21:34:48.785Z,70.14
2022-10-01T21:37:31.189Z,70.17
2022-10-01T21:40:17.195Z,70.18
2022-10-01T21:42:57.316Z,70.31
2022-10-01T21:45:43.190Z,70.28
2022-10-01T21:48:27.155Z,70.47
2022-10-01T21:51:06.944Z,70.39
2022-10-01T21:53:58.533Z,70.18
2022-10-01T21:57:03.019Z,70.15
2022-10-01T21:59:51.064Z,70.23
2022-10-01T22:02:35.684Z,69.99
2022-10-01T22:05:23.566Z,70.01
2022-10-01T22:08:06.579Z,69.75
2022-10-01T22:10:43.748Z,69.83
2022-10-01T22:13:21.562Z,69.72
2022-10-01T22:15:59.473Z,69.64
2022-10-01T22:18:38.629Z,69.78
2022-10-01T22:21:15.166Z,69.60
2022-10-01T22:23:58.911Z,69.64
2022-10-01T22:26:36.301Z,69.58
2022-10-01T22:29:16.059Z,69.57
2022-10-01T22:31:53.146Z,69.65
2022-10-01T22:34:33.618Z,69.59
2022-10-01T22:37:12.894Z,69.57
2022-10-01T22:39:51.538Z,69.59
2022-10-01T22:42:30.530Z,69.48
2022-10-01T22:45:13.613Z,69.57
2022-10-01T22:48:00.820Z,69.75
2022-10-01T22:50:48.988Z,69.61
2022-10-01T22:53:42.861Z,69.70
2022-10-01T22:56:23.634Z,69.63
2022-10-01T22:59:12.466Z,69.72
2022-10-01T23:01:53.609Z,69.88
2022-10-01T23:04:36.767Z,70.15
2022-10-01T23:07:21.664Z,70.06
2022-10-01T23:10:03.493Z,70.24
2022-10-01T23:12:47.479Z,70.33
2022-10-01T23:15:23.084Z,69.63
2022-10-01T23:18:11.175Z,70.01
2022-10-01T23:20:54.281Z,70.30
2022-10-01T23:23:32.789Z,70.19
2022-10-01T23:26:29.653Z,70.65
2022-10-01T23:29:17.498Z,70.59
2022-10-01T23:32:01.609Z,70.82
2022-10-01T23:34:45.813Z,70.79
2022-10-01T23:37:29.946Z,70.08
2022-10-01T23:40:07.981Z,70.48
2022-10-01T23:42:50.812Z,70.54
2022-10-01T23:45:29.867Z,70.86
2022-10-01T23:48:09.399Z,70.92
2022-10-01T23:50:47.445Z,70.94
2022-10-01T23:53:24.277Z,71.31
2022-10-01T23:56:22.690Z,71.13
2022-10-01T23:59:03.168Z,71.30
